Terminal Aerodrome Forecast
Issued by NWS

Home | Current Version | Previous Version | Text Only | Print | Product List | Glossary On
Versions: 1 2 3 4 5 6 7 8 9 10 11 12
545
FTUS41 KPBZ 242336
TAFHLG
TAF
KHLG 242336Z 2500/2524 09009KT P6SM VCSH BKN080
     FM250400 09008KT P6SM BKN060=

USA.gov is the U.S. government's official web portal to all federal, state and local government web resources and services.